This is the latest recevied weather packets stored in our database for station/object N5GC-2. If no packets are shown the sender has not sent any weather packets the latest 10 day(s).
| Time | Temp. | Humidity | Pressure | Rain* | Wind** | Luminosity | Snow |
|---|---|---|---|---|---|---|---|
| 1777566239 | 20° C | 42% | - | 0 mm | - | - | - |
| 1777565936 | 20° C | 39% | - | 0 mm | - | - | - |
| 1777565631 | 20° C | 40% | - | 0 mm | - | - | - |
| 1777565328 | 20° C | 39% | - | 0 mm | - | - | - |
| 1777565024 | 19.44° C | 42% | - | 0 mm | - | - | - |
| 1777564720 | 19.44° C | 41% | - | 0 mm | - | - | - |
| 1777564415 | 18.89° C | 41% | - | 0 mm | - | - | - |
| 1777564111 | 18.89° C | 41% | - | 0 mm | - | - | - |
| 1777563807 | 18.33° C | 43% | - | 0 mm | - | - | - |
| 1777563504 | 18.33° C | 43% | - | 0 mm | - | - | - |
| 1777563203 | 17.78° C | 43% | - | 0 mm | - | - | - |
| 1777562900 | 17.22° C | 44% | - | 0 mm | - | - | - |
| 1777562596 | 17.22° C | 45% | - | 0 mm | - | - | - |
| 1777562295 | 16.67° C | 45% | - | 0 mm | - | - | - |
| 1777561992 | 16.67° C | 45% | - | 0 mm | - | - | - |
| 1777561689 | 16.11° C | 49% | - | 0 mm | - | - | - |
| 1777561384 | 16.11° C | 50% | - | 0 mm | - | - | - |
| 1777561079 | 15.56° C | 51% | - | 0 mm | - | - | - |
| 1777560775 | 15.56° C | 49% | - | 0 mm | - | - | - |
| 1777560473 | 15.56° C | 50% | - | 0 mm | - | - | - |
| 1777560170 | 15° C | 51% | - | 0 mm | - | - | - |
| 1777559867 | 15° C | 51% | - | 0 mm | - | - | - |
| 1777559562 | 15° C | 51% | - | 0 mm | - | - | - |
| 1777559260 | 14.44° C | 53% | - | 0 mm | - | - | - |
| 1777558955 | 14.44° C | 52% | - | 0 mm | - | - | - |
* Rain latest hour (hover to see other rain measurements)
** Current wind speed in m/s (hover to see current wind gust speed)